createdAt,value
2022-09-11T18:10:41.851Z,83.12
2022-09-11T18:11:42.834Z,83.72
2022-09-11T18:12:42.803Z,84.12
2022-09-11T18:13:42.878Z,84.43
2022-09-11T18:14:42.789Z,84.93
2022-09-11T18:15:42.772Z,85.17
2022-09-11T18:16:42.777Z,85.48
2022-09-11T18:17:42.750Z,85.48
2022-09-11T18:18:42.738Z,85.78
2022-09-11T18:19:42.728Z,86.08
2022-09-11T18:20:42.714Z,86.02
2022-09-11T18:21:46.657Z,86.02
2022-09-11T18:22:42.699Z,86.22
2022-09-11T18:23:42.710Z,86.22
2022-09-11T18:24:42.673Z,86.13
2022-09-11T18:25:42.669Z,85.93
2022-09-11T18:26:42.675Z,86.02
2022-09-11T18:27:42.679Z,85.82
2022-09-11T18:28:42.792Z,86.02
2022-09-11T18:29:42.693Z,86.07
2022-09-11T18:30:42.627Z,86.57
2022-09-11T18:31:42.709Z,86.77
2022-09-11T18:32:42.596Z,87.08
2022-09-11T18:33:42.620Z,86.87
2022-09-11T18:34:42.618Z,86.67
2022-09-11T18:35:42.565Z,86.98
2022-09-11T18:36:42.571Z,87.28
2022-09-11T18:37:42.548Z,87.08
2022-09-11T18:38:42.528Z,88.02
2022-09-11T18:39:42.585Z,87.82
2022-09-11T18:40:42.504Z,87.73
2022-09-11T18:41:42.537Z,87.82
2022-09-11T18:42:42.486Z,87.93
2022-09-11T18:43:42.571Z,87.73
2022-09-11T18:44:42.484Z,87.62
2022-09-11T18:45:42.456Z,87.66
2022-09-11T18:46:42.604Z,87.66
2022-09-11T18:47:42.438Z,87.56
2022-09-11T18:48:42.435Z,87.87
2022-09-11T18:49:42.413Z,87.77
2022-09-11T18:50:42.431Z,88.27
2022-09-11T18:51:42.440Z,88.07
2022-09-11T18:52:42.389Z,88.68
2022-09-11T18:53:42.486Z,87.97
2022-09-11T18:54:42.371Z,88.07
2022-09-11T18:55:42.597Z,88.17
2022-09-11T18:56:42.373Z,87.56
2022-09-11T18:57:45.864Z,87.97
2022-09-11T18:58:42.336Z,88.27
2022-09-11T18:59:42.311Z,88.57
2022-09-11T19:00:42.388Z,88.92
2022-09-11T19:01:42.522Z,88.92
2022-09-11T19:02:42.280Z,89.53
2022-09-11T19:03:42.400Z,89.63
2022-09-11T19:04:42.251Z,89.63
2022-09-11T19:05:42.305Z,89.02
2022-09-11T19:06:42.252Z,88.96
2022-09-11T19:07:42.246Z,88.86
2022-09-11T19:08:42.213Z,88.86
2022-09-11T19:09:45.817Z,88.76
2022-09-11T19:10:42.190Z,88.66
2022-09-11T19:11:42.205Z,88.76
2022-09-11T19:12:42.171Z,88.86
2022-09-11T19:13:42.224Z,89.06
2022-09-11T19:14:42.148Z,89.17
2022-09-11T19:15:42.146Z,89.17
2022-09-11T19:16:42.166Z,89.17
2022-09-11T19:17:42.211Z,89.17
2022-09-11T19:18:42.113Z,89.57
2022-09-11T19:19:42.100Z,89.17
2022-09-11T19:20:42.087Z,89.57
2022-09-11T19:21:42.101Z,89.57
2022-09-11T19:22:42.065Z,89.47
2022-09-11T19:23:42.136Z,89.67
2022-09-11T19:24:42.062Z,89.98
2022-09-11T19:25:42.060Z,89.47
2022-09-11T19:26:42.050Z,89.77
2022-09-11T19:27:42.021Z,89.57
2022-09-11T19:28:42.000Z,89.41
2022-09-11T19:29:42.001Z,89.72
2022-09-11T19:30:43.242Z,89.72
2022-09-11T19:31:42.040Z,90.02
2022-09-11T19:32:41.961Z,90.12
2022-09-11T19:33:42.042Z,90.02
2022-09-11T19:34:46.897Z,90.12
2022-09-11T19:35:41.938Z,90.12
2022-09-11T19:36:42.062Z,89.92
2022-09-11T19:37:41.911Z,90.42
2022-09-11T19:38:41.896Z,90.93
2022-09-11T19:39:41.938Z,91.03
2022-09-11T19:40:41.880Z,90.42
2022-09-11T19:41:41.890Z,90.83
2022-09-11T19:42:41.855Z,91.34
2022-09-11T19:43:41.974Z,91.38
2022-09-11T19:44:41.833Z,91.28
2022-09-11T19:45:42.028Z,91.08
2022-09-11T19:46:41.941Z,91.58
2022-09-11T19:47:41.911Z,91.58
2022-09-11T19:48:41.792Z,92.19
2022-09-11T19:49:41.789Z,92.09
2022-09-11T19:50:41.780Z,92.49
2022-09-11T19:51:41.785Z,92.40
2022-09-11T19:52:41.801Z,93.30
2022-09-11T19:53:41.743Z,92.60
2022-09-11T19:54:41.731Z,93.00
2022-09-11T19:55:41.715Z,92.90
2022-09-11T19:56:41.728Z,91.99
2022-09-11T19:57:41.696Z,92.29
2022-09-11T19:58:41.706Z,91.78
2022-09-11T19:59:41.677Z,91.58
2022-09-11T20:00:41.778Z,91.68
2022-09-11T20:01:41.724Z,91.89
2022-09-11T20:02:41.651Z,92.09
2022-09-11T20:03:41.649Z,91.78
2022-09-11T20:04:41.632Z,91.58
2022-09-11T20:05:41.615Z,91.78
2022-09-11T20:06:42.086Z,91.99
2022-09-11T20:07:41.593Z,92.19
2022-09-11T20:08:41.587Z,92.29
2022-09-11T20:09:41.621Z,92.80
2022-09-11T20:10:41.568Z,92.60
2022-09-11T20:11:41.570Z,92.49
2022-09-11T20:12:41.545Z,92.19
2022-09-11T20:13:41.644Z,92.19
2022-09-11T20:14:42.814Z,92.29
2022-09-11T20:15:41.508Z,92.24
2022-09-11T20:16:41.530Z,92.29
2022-09-11T20:17:41.498Z,92.40
2022-09-11T20:18:41.483Z,92.19
2022-09-11T20:19:41.470Z,92.19
2022-09-11T20:20:45.348Z,92.09
2022-09-11T20:21:41.467Z,92.09
2022-09-11T20:22:41.438Z,92.19
2022-09-11T20:23:41.549Z,91.99
2022-09-11T20:24:41.421Z,91.58
2022-09-11T20:25:41.403Z,92.24
2022-09-11T20:26:41.418Z,92.84
2022-09-11T20:27:41.384Z,92.44
2022-09-11T20:28:41.380Z,92.54
2022-09-11T20:29:41.367Z,92.54
2022-09-11T20:30:41.358Z,92.84
2022-09-11T20:31:49.098Z,93.35
2022-09-11T20:32:41.343Z,93.55
2022-09-11T20:33:41.399Z,93.86
2022-09-11T20:34:41.316Z,94.37
2022-09-11T20:35:41.299Z,93.96
2022-09-11T20:36:41.317Z,93.96
2022-09-11T20:37:41.278Z,94.37
2022-09-11T20:38:41.274Z,94.17
2022-09-11T20:39:41.306Z,94.17
2022-09-11T20:40:41.252Z,94.26
2022-09-11T20:41:41.257Z,94.26
2022-09-11T20:42:41.231Z,94.46
2022-09-11T20:43:41.283Z,94.46
2022-09-11T20:44:41.214Z,94.17
2022-09-11T20:45:41.196Z,94.17
2022-09-11T20:46:41.261Z,94.17
2022-09-11T20:47:41.183Z,93.86
2022-09-11T20:48:41.173Z,94.06
2022-09-11T20:49:41.157Z,94.06
2022-09-11T20:50:41.151Z,94.26
2022-09-11T20:51:41.158Z,94.37
2022-09-11T20:52:41.129Z,94.57
2022-09-11T20:53:41.111Z,94.26
2022-09-11T20:54:41.107Z,94.37
2022-09-11T20:55:41.094Z,94.26
2022-09-11T20:56:41.108Z,93.76
2022-09-11T20:57:41.072Z,94.06
2022-09-11T20:58:41.071Z,93.86
2022-09-11T20:59:41.053Z,93.65
2022-09-11T21:00:41.068Z,93.96
2022-09-11T21:01:41.100Z,94.06
2022-09-11T21:02:41.022Z,93.86
2022-09-11T21:03:41.108Z,94.26
2022-09-11T21:04:41.003Z,94.26
2022-09-11T21:05:40.995Z,94.31
2022-09-11T21:06:41.004Z,94.41
2022-09-11T21:07:40.970Z,94.51
2022-09-11T21:08:40.965Z,94.71
2022-09-11T21:09:40.952Z,95.02
2022-09-11T21:10:40.943Z,94.82
2022-09-11T21:11:40.945Z,95.42
2022-09-11T21:12:40.922Z,95.02
2022-09-11T21:13:40.949Z,94.92
2022-09-11T21:14:40.904Z,95.53
2022-09-11T21:15:40.885Z,95.63
2022-09-11T21:16:40.984Z,95.22
2022-09-11T21:17:40.866Z,95.53
2022-09-11T21:18:40.858Z,95.32
2022-09-11T21:19:40.844Z,95.32
2022-09-11T21:20:40.840Z,95.63
2022-09-11T21:21:40.842Z,95.53
2022-09-11T21:22:40.816Z,95.32
2022-09-11T21:23:40.825Z,95.63
2022-09-11T21:24:40.795Z,95.53
2022-09-11T21:25:40.783Z,95.63
2022-09-11T21:26:40.793Z,95.22
2022-09-11T21:27:40.762Z,95.53
2022-09-11T21:28:40.753Z,95.22
2022-09-11T21:29:40.739Z,95.53
2022-09-11T21:30:40.733Z,95.63
2022-09-11T21:31:40.757Z,95.73
2022-09-11T21:32:40.712Z,95.63
2022-09-11T21:33:40.801Z,95.53
2022-09-11T21:34:40.691Z,95.53
2022-09-11T21:35:40.679Z,95.42
2022-09-11T21:36:40.689Z,95.73
2022-09-11T21:37:40.656Z,95.94
2022-09-11T21:38:40.650Z,96.23
2022-09-11T21:39:40.687Z,95.83
2022-09-11T21:40:40.631Z,96.23
2022-09-11T21:41:40.633Z,95.94
2022-09-11T21:42:40.611Z,96.03
2022-09-11T21:43:40.628Z,95.94
2022-09-11T21:44:40.588Z,95.83
2022-09-11T21:45:40.581Z,96.23
2022-09-11T21:46:40.622Z,96.14
2022-09-11T21:47:40.552Z,95.98
2022-09-11T21:48:40.547Z,95.98
2022-09-11T21:49:40.533Z,95.87
2022-09-11T21:50:40.528Z,96.18
2022-09-11T21:51:40.530Z,96.28
2022-09-11T21:52:40.504Z,96.59
2022-09-11T21:53:40.492Z,96.28
2022-09-11T21:54:40.484Z,95.87
2022-09-11T21:55:40.469Z,95.98
2022-09-11T21:56:40.480Z,96.18
2022-09-11T21:57:40.453Z,96.08
2022-09-11T21:58:40.442Z,96.28
2022-09-11T21:59:40.428Z,95.87
2022-09-11T22:00:43.005Z,96.18
2022-09-11T22:01:40.456Z,96.38
2022-09-11T22:02:40.402Z,96.28
2022-09-11T22:03:40.391Z,96.38
2022-09-11T22:04:40.487Z,96.48
2022-09-11T22:05:40.363Z,96.18
2022-09-11T22:06:40.377Z,96.08
2022-09-11T22:07:40.342Z,96.28
2022-09-11T22:08:40.339Z,96.48
2022-09-11T22:09:40.320Z,96.48
2022-09-11T22:10:40.318Z,96.38
2022-09-11T22:11:40.318Z,96.73
2022-09-11T22:12:40.296Z,96.48
2022-09-11T22:13:40.288Z,96.53
2022-09-11T22:14:40.276Z,96.53
2022-09-11T22:15:40.260Z,96.63
2022-09-11T22:16:40.354Z,96.33
2022-09-11T22:17:40.238Z,96.53
2022-09-11T22:18:40.236Z,96.43
2022-09-11T22:19:40.216Z,96.63
2022-09-11T22:20:40.212Z,96.53
2022-09-11T22:21:40.215Z,96.53
2022-09-11T22:22:40.194Z,96.43
2022-09-11T22:23:40.175Z,96.73
2022-09-11T22:24:40.171Z,96.73
2022-09-11T22:25:40.160Z,96.63
2022-09-11T22:26:40.170Z,96.83
2022-09-11T22:27:40.136Z,96.73
2022-09-11T22:28:40.129Z,96.94
2022-09-11T22:29:42.895Z,96.73
2022-09-11T22:30:40.114Z,96.63
2022-09-11T22:31:40.182Z,96.73
2022-09-11T22:32:40.088Z,96.63
2022-09-11T22:33:40.072Z,96.47
2022-09-11T22:34:40.127Z,96.58
2022-09-11T22:35:40.051Z,96.58
2022-09-11T22:36:40.069Z,96.68
2022-09-11T22:37:40.033Z,96.58
2022-09-11T22:38:40.025Z,96.88
2022-09-11T22:39:40.118Z,96.78
2022-09-11T22:40:40.003Z,96.98
2022-09-11T22:41:40.008Z,97.29
2022-09-11T22:42:39.984Z,97.19
2022-09-11T22:43:39.973Z,96.88
2022-09-11T22:44:40.022Z,97.08
2022-09-11T22:45:40.023Z,97.29
2022-09-11T22:46:39.967Z,97.08
2022-09-11T22:47:39.925Z,97.39
2022-09-11T22:48:39.921Z,97.69
2022-09-11T22:49:39.966Z,97.80
2022-09-11T22:50:39.904Z,97.69
2022-09-11T22:51:39.908Z,97.69
2022-09-11T22:52:39.880Z,97.69
2022-09-11T22:53:39.865Z,97.80
2022-09-11T22:54:39.859Z,97.69
2022-09-11T22:55:39.844Z,97.60
2022-09-11T22:56:39.858Z,97.80
2022-09-11T22:57:39.826Z,97.80
2022-09-11T22:58:39.817Z,97.69
2022-09-11T22:59:39.809Z,97.89
2022-09-11T23:00:39.867Z,97.69
2022-09-11T23:01:39.862Z,97.69
2022-09-11T23:02:39.776Z,97.80
2022-09-11T23:03:39.764Z,97.60
2022-09-11T23:04:39.761Z,97.39
2022-09-11T23:05:39.740Z,97.39
2022-09-11T23:06:39.752Z,97.39
2022-09-11T23:07:39.721Z,97.29
2022-09-11T23:08:39.714Z,96.98
2022-09-11T23:09:39.699Z,97.19
2022-09-11T23:10:39.693Z,97.08
2022-09-11T23:11:39.707Z,97.19
2022-09-11T23:12:39.673Z,97.19
2022-09-11T23:13:39.659Z,97.19
2022-09-11T23:14:39.652Z,97.08
2022-09-11T23:15:39.637Z,97.08
2022-09-11T23:16:39.691Z,96.88
2022-09-11T23:17:39.617Z,96.88
2022-09-11T23:18:39.609Z,97.08
2022-09-11T23:19:39.596Z,97.08
2022-09-11T23:20:39.590Z,96.98
2022-09-11T23:21:39.599Z,97.08
2022-09-11T23:22:39.572Z,97.39
2022-09-11T23:23:39.554Z,97.39
2022-09-11T23:24:39.550Z,97.60
2022-09-11T23:25:39.618Z,97.39
2022-09-11T23:26:39.578Z,97.39
2022-09-11T23:27:39.512Z,97.49
2022-09-11T23:28:39.510Z,97.69
2022-09-11T23:29:39.492Z,97.80
2022-09-11T23:30:39.501Z,97.80
2022-09-11T23:31:39.504Z,98.00
2022-09-11T23:32:41.899Z,98.00
2022-09-11T23:33:39.449Z,97.89
2022-09-11T23:34:39.473Z,97.49
2022-09-11T23:35:39.437Z,97.60
2022-09-11T23:36:39.444Z,97.29
2022-09-11T23:37:42.353Z,97.08
2022-09-11T23:38:39.412Z,97.19
2022-09-11T23:39:39.421Z,97.19
2022-09-11T23:40:39.382Z,96.98
2022-09-11T23:41:39.390Z,96.47
2022-09-11T23:42:39.360Z,97.08
2022-09-11T23:43:39.351Z,97.19
2022-09-11T23:44:39.338Z,97.19
2022-09-11T23:45:39.357Z,97.29
2022-09-11T23:46:39.345Z,96.88
2022-09-11T23:47:39.319Z,96.78
2022-09-11T23:48:39.299Z,96.98
2022-09-11T23:49:39.286Z,97.29
2022-09-11T23:50:39.280Z,97.19
2022-09-11T23:51:39.285Z,97.19
2022-09-11T23:52:39.259Z,97.19
2022-09-11T23:53:39.244Z,96.98
2022-09-11T23:54:39.235Z,96.78
2022-09-11T23:55:42.302Z,97.08
2022-09-11T23:56:39.235Z,96.68
2022-09-11T23:57:39.198Z,97.08
2022-09-11T23:58:40.122Z,96.98
2022-09-11T23:59:39.189Z,96.78
